Loris, SC (29569)

21:23 EDT le 24 octobre 2014 (GMT -0400)
HWY 9 BUS. WEST. | Change Station
CLOSE
Current Station
Stations météorologiques personnelles
Location: Loris, SC
Altitude: 99 ft
Stations météo à proximité

Alt. 99 ft 34.07 °N, 78.91 °W | Updated 4 seconds ago

Partiellement nuageux
Partiellement nuageux
54.9 ° F
Paraît 54.9 ° F
N
0.0
Vent Variable Vent de NNO
Gusts 0.0 mph

Aujourd'hui
Haut(e) -- | Bas -- ° F
--% Risque de précip.
Hier
Haut(e) -- | Bas -- ° F
Precip. -- pouce
7:28 AM 6:30 PM
Nouvelle lune, 1% visible
Pression 29.99 pouce
Visibilité 7.0 Miles terrestres
Nuages Ciel dégagé
Point de rosée 50 ° F
Humidité 84%
Précipitations 0.00 pouce
Profondeur de la couche neigeuse Non disponible.
UV 0 sur 12
Pollen 3.50 sur 12
Qualité de l'air Non disponible.
Flu Activity Sporadic
METAR KHYW 250115Z AUTO 00000KT 7SM CLR 12/12 A2999 RMK AO2

More Conditions Fewer Conditions

Pression 29.99 pouce
Visibilité 7.0 Miles terrestres
Nuages Ciel dégagé
Point de rosée 50 ° F
Humidité 84%
Précipitations 0.00 pouce
Profondeur de la couche neigeuse Non disponible.
UV 0 sur 12
Pollen 3.50 sur 12
Qualité de l'air Non disponible.
Flu Activity Sporadic
METAR KHYW 250115Z AUTO 00000KT 7SM CLR 12/12 A2999 RMK AO2

More Conditions Fewer Conditions

10-Day Weather Forecast

Almanac

Astronomie

Oct. 24, 2014 Lever Coucher
Temps réel 07:28 EDT 18:30 EDT
Crépuscule civil 07:02 EDT 18:56 EDT
Crépuscule nautique 06:33 EDT 19:25 EDT
Crépuscule astronomique 06:04 EDT 19:54 EDT
Lune 08:04 EDT (10/24) 19:11 EDT (10/24)
Durée de lumière visible 11h 53m
Longueur du jour
11h 02m
Tomorrow will be 1m 57s shorter.
Nouvelle lune, 1% of the Moon is Illuminated
Aujourd'hui
Nouvelle lune
Oct 30
Premier quartier
Nov 6
Pleine lune
Nov 14
Dernier quartier
Nov 22
Nouveau

Extrêmes aujourd'hui

State Highs State Lows

Community

WunderPhotos

Upload Photos

1,764,741 Photos téléchargées !

WunderBlogs® & News

Nearby

Épaisseur de neige

Station Depth Altitude
Pas de nouvelles chutes de neige

Activité sismique

Ville Distance Mag. Time & Date
No recent earthquake activity has been reported nearby.
Minimum magnitude displayed is 2.5.

Températures des eaux côtières

Lieu Température
Springmaid Pier, SC 69.1 ° F

Stations météo à proximité